Time;durP1;ratioP1;P1;durP2;ratioP2;P2;SDS_P1;SDS_P2;PMS_P1;PMS_P2;Temp;Humidity;BMP_temperature;BMP_pressure;BME280_temperature;BME280_humidity;BME280_pressure;Samples;Min_cycle;Max_cycle;Signal;HPM_P1;HPM_P2
2023/06/11 00:01:08;;;;;;;10.07;4.50;;;18.80;99.90;;;;;;4971541;28;20057;-71
2023/06/11 00:03:36;;;;;;;7.22;4.68;;;18.80;99.90;;;;;;4974560;28;20046;-71
2023/06/11 00:06:02;;;;;;;9.95;4.38;;;18.90;99.90;;;;;;4979063;28;20132;-71
2023/06/11 00:08:27;;;;;;;7.72;4.47;;;18.80;99.90;;;;;;4974034;28;20144;-71
2023/06/11 00:10:53;;;;;;;11.20;4.72;;;18.80;99.90;;;;;;4990733;28;20034;-71
2023/06/11 00:13:18;;;;;;;9.38;4.45;;;18.80;99.90;;;;;;4967682;28;20041;-71
2023/06/11 00:15:44;;;;;;;11.80;4.47;;;18.80;99.90;;;;;;4974596;28;20050;-71
2023/06/11 00:18:10;;;;;;;11.25;5.20;;;18.80;99.90;;;;;;4978011;28;20117;-71
2023/06/11 00:20:40;;;;;;;9.95;4.15;;;18.80;99.90;;;;;;4990170;28;20161;-72
2023/06/11 00:23:06;;;;;;;10.35;4.60;;;18.80;99.90;;;;;;4977460;28;20129;-71
2023/06/11 00:25:32;;;;;;;8.95;4.90;;;18.80;99.90;;;;;;4973933;28;20353;-71
2023/06/11 00:30:25;;;;;;;;;;;18.70;99.90;;;;;;4996245;28;19925;-70
2023/06/11 00:32:51;;;;;;;9.23;4.45;;;18.70;99.90;;;;;;4973033;28;19937;-70
2023/06/11 00:35:17;;;;;;;12.43;4.78;;;18.80;99.90;;;;;;4960719;28;20046;-70
2023/06/11 00:37:42;;;;;;;12.10;6.13;;;18.70;99.90;;;;;;4962986;28;20050;-70
2023/06/11 00:40:09;;;;;;;9.63;4.68;;;18.70;99.90;;;;;;4976251;28;20038;-70
2023/06/11 00:42:35;;;;;;;11.13;5.00;;;18.70;99.90;;;;;;4957727;28;20214;-70
2023/06/11 00:45:03;;;;;;;8.88;4.18;;;18.70;99.90;;;;;;4957600;28;20508;-70
2023/06/11 00:47:29;;;;;;;6.97;4.43;;;18.70;99.90;;;;;;4952571;28;20170;-70
2023/06/11 00:49:56;;;;;;;7.45;4.68;;;18.70;99.90;;;;;;4959599;28;20046;-70
2023/06/11 00:52:22;;;;;;;10.15;4.97;;;18.70;99.90;;;;;;4967006;28;20042;-70
2023/06/11 00:54:48;;;;;;;15.10;4.93;;;18.70;99.90;;;;;;4965157;28;20082;-70
2023/06/11 00:57:24;;;;;;;10.60;5.35;;;18.70;99.90;;;;;;4982719;28;20077;-70
2023/06/11 00:59:51;;;;;;;13.15;5.53;;;18.70;99.90;;;;;;4973194;28;20053;-70
2023/06/11 01:02:25;;;;;;;7.75;4.93;;;18.70;99.90;;;;;;4963196;28;20137;-70
2023/06/11 01:04:53;;;;;;;7.43;4.45;;;18.70;99.90;;;;;;4986241;28;20061;-70
2023/06/11 01:07:21;;;;;;;9.77;5.72;;;18.70;99.90;;;;;;4975560;28;20035;-70
2023/06/11 01:09:46;;;;;;;9.57;5.03;;;18.70;99.90;;;;;;4966114;28;20050;-70
2023/06/11 01:12:12;;;;;;;10.70;5.07;;;18.80;99.90;;;;;;4975660;28;20099;-70
2023/06/11 01:14:39;;;;;;;7.18;5.00;;;18.70;99.90;;;;;;4980549;28;20404;-70
2023/06/11 01:17:09;;;;;;;10.93;5.60;;;18.70;99.90;;;;;;4967189;28;20043;-70
2023/06/11 01:19:37;;;;;;;14.88;5.30;;;18.70;99.90;;;;;;4985568;28;20042;-70
2023/06/11 01:22:38;;;;;;;7.78;4.93;;;18.70;99.90;;;;;;4959086;28;20046;-70
2023/06/11 01:25:24;;;;;;;9.77;4.90;;;18.70;99.90;;;;;;4947861;28;20046;-70
2023/06/11 01:28:07;;;;;;;10.20;4.93;;;18.70;99.90;;;;;;4980134;28;20607;-70
2023/06/11 01:30:36;;;;;;;8.35;5.25;;;18.70;99.90;;;;;;4966340;28;20488;-70
2023/06/11 01:33:03;;;;;;;7.30;4.68;;;18.70;99.90;;;;;;4960907;28;20046;-70
2023/06/11 01:35:29;;;;;;;9.75;4.28;;;18.70;99.90;;;;;;4966352;28;20042;-70
2023/06/11 01:37:55;;;;;;;;;;;18.60;99.90;;;;;;4980216;28;20053;-70
2023/06/11 01:40:28;;;;;;;9.40;4.78;;;18.60;99.90;;;;;;4972485;28;19922;-70
2023/06/11 01:42:57;;;;;;;10.20;5.38;;;18.60;99.90;;;;;;4962631;28;20046;-70
2023/06/11 01:45:24;;;;;;;12.80;5.90;;;18.60;99.90;;;;;;4969854;28;20573;-70
2023/06/11 01:47:50;;;;;;;9.55;4.95;;;18.50;99.90;;;;;;4988107;28;20041;-70
2023/06/11 01:50:17;;;;;;;15.30;5.38;;;18.50;99.90;;;;;;4984013;28;20580;-71
2023/06/11 01:52:43;;;;;;;8.15;4.97;;;18.50;99.90;;;;;;4970800;28;20081;-70
2023/06/11 01:55:09;;;;;;;8.95;5.43;;;18.50;99.90;;;;;;4964695;28;20047;-70
2023/06/11 01:57:35;;;;;;;10.15;5.90;;;18.50;99.90;;;;;;4990704;28;20043;-70
2023/06/11 02:00:04;;;;;;;;;;;18.50;99.90;;;;;;4960858;28;20050;-70
2023/06/11 02:02:31;;;;;;;10.85;5.30;;;18.50;99.90;;;;;;4968233;28;19918;-70
2023/06/11 02:04:57;;;;;;;10.10;4.97;;;18.40;99.90;;;;;;4964520;28;20126;-70
2023/06/11 02:07:23;;;;;;;;;;;18.50;99.90;;;;;;4987299;28;20046;-70
2023/06/11 02:09:49;;;;;;;11.95;5.25;;;18.40;99.90;;;;;;4968257;28;19940;-70
2023/06/11 02:12:14;;;;;;;;;;;18.40;99.90;;;;;;4973785;28;20356;-71
2023/06/11 02:14:40;;;;;;;7.63;4.65;;;18.40;99.90;;;;;;4970216;28;20457;-70
2023/06/11 02:17:06;;;;;;;10.85;4.88;;;18.40;99.90;;;;;;4971850;28;20099;-70
2023/06/11 02:19:31;;;;;;;10.85;4.75;;;18.40;99.90;;;;;;4988755;28;20109;-70
2023/06/11 02:21:57;;;;;;;8.07;4.93;;;18.40;99.90;;;;;;4965131;28;20492;-70
2023/06/11 02:24:22;;;;;;;6.60;4.60;;;18.40;99.90;;;;;;4966949;28;20058;-70
2023/06/11 02:26:48;;;;;;;7.88;4.82;;;18.30;99.90;;;;;;4956112;28;20042;-70
2023/06/11 02:29:13;;;;;;;10.73;5.43;;;18.40;99.90;;;;;;4966587;28;20042;-70
2023/06/11 02:31:39;;;;;;;8.00;5.47;;;18.30;99.90;;;;;;4991806;28;20097;-70
2023/06/11 02:34:05;;;;;;;8.52;5.40;;;18.30;99.90;;;;;;4982958;28;20047;-70
2023/06/11 02:36:30;;;;;;;7.00;5.00;;;18.30;99.90;;;;;;4966261;28;20093;-70
2023/06/11 02:38:56;;;;;;;13.98;6.25;;;18.20;99.90;;;;;;4963484;28;20046;-70
2023/06/11 02:41:22;;;;;;;11.27;5.65;;;18.30;99.90;;;;;;4983805;28;20042;-70
2023/06/11 02:43:47;;;;;;;11.80;5.20;;;18.30;99.90;;;;;;4966003;28;20146;-71
2023/06/11 02:46:13;;;;;;;9.05;4.88;;;18.30;99.90;;;;;;4959429;28;20484;-71
2023/06/11 02:48:38;;;;;;;11.70;5.45;;;18.20;99.90;;;;;;4983494;28;20050;-71
2023/06/11 02:51:04;;;;;;;8.48;5.65;;;18.30;99.90;;;;;;4966611;28;20492;-72
2023/06/11 02:53:29;;;;;;;8.27;5.40;;;18.20;99.90;;;;;;4984864;28;20053;-72
2023/06/11 02:55:55;;;;;;;8.32;5.40;;;18.20;99.90;;;;;;4967161;28;20505;-72
2023/06/11 02:58:21;;;;;;;9.23;5.25;;;18.10;99.90;;;;;;4962712;28;20041;-71
2023/06/11 03:00:46;;;;;;;8.40;5.85;;;18.20;99.90;;;;;;4985614;28;20500;-71
2023/06/11 03:03:12;;;;;;;10.95;6.18;;;18.10;99.90;;;;;;4966898;28;20491;-71
2023/06/11 03:05:38;;;;;;;13.25;6.50;;;18.10;99.90;;;;;;4965886;28;20050;-71
2023/06/11 03:08:04;;;;;;;8.50;5.85;;;18.10;99.90;;;;;;4977423;28;20055;-71
2023/06/11 03:10:29;;;;;;;9.40;6.20;;;18.10;99.90;;;;;;4970877;28;20042;-72
2023/06/11 03:12:55;;;;;;;9.05;5.82;;;18.10;99.90;;;;;;4961724;28;20050;-71
2023/06/11 03:15:21;;;;;;;8.55;5.85;;;18.10;99.90;;;;;;4967460;28;20039;-71
2023/06/11 03:17:47;;;;;;;12.02;6.18;;;18.00;99.90;;;;;;4963052;28;20500;-70
2023/06/11 03:20:12;;;;;;;7.95;5.32;;;18.00;99.90;;;;;;4963214;28;20046;-70
2023/06/11 03:22:38;;;;;;;10.00;5.25;;;18.00;99.90;;;;;;4969263;28;20420;-70
2023/06/11 03:25:04;;;;;;;9.20;6.00;;;18.00;99.90;;;;;;4986764;28;20503;-70
2023/06/11 03:27:30;;;;;;;8.48;6.00;;;18.00;99.90;;;;;;4966116;28;20065;-70
2023/06/11 03:29:56;;;;;;;10.02;6.93;;;18.00;99.90;;;;;;4983054;28;20046;-68
2023/06/11 03:32:22;;;;;;;10.32;5.85;;;17.90;99.90;;;;;;4961683;28;20046;-69
2023/06/11 03:34:50;;;;;;;9.63;6.45;;;17.90;99.90;;;;;;4961558;28;20490;-68
2023/06/11 03:37:16;;;;;;;11.13;6.45;;;17.90;99.90;;;;;;4970934;28;20192;-71
2023/06/11 03:39:43;;;;;;;7.38;6.00;;;17.90;99.90;;;;;;4962298;28;20057;-71
2023/06/11 03:42:08;;;;;;;;;;;17.90;99.90;;;;;;4961957;28;20128;-71
2023/06/11 03:44:34;;;;;;;10.77;6.50;;;17.90;99.90;;;;;;4980436;28;20072;-71
2023/06/11 03:47:00;;;;;;;10.55;6.60;;;17.90;99.90;;;;;;4967703;28;20074;-71
2023/06/11 03:49:25;;;;;;;8.30;6.43;;;17.80;99.90;;;;;;4961476;28;20038;-71
2023/06/11 03:51:51;;;;;;;10.80;6.13;;;17.80;99.90;;;;;;4971165;28;20046;-71
2023/06/11 03:54:17;;;;;;;10.38;6.05;;;17.80;99.90;;;;;;4962603;28;20120;-71
2023/06/11 03:56:42;;;;;;;9.80;7.00;;;17.80;99.90;;;;;;4977486;28;20101;-67
2023/06/11 03:59:08;;;;;;;10.35;6.25;;;17.80;99.90;;;;;;4968778;28;20049;-68
2023/06/11 04:01:33;;;;;;;9.40;6.07;;;17.80;99.90;;;;;;4991358;28;20126;-68
2023/06/11 04:03:59;;;;;;;7.95;6.28;;;17.80;99.90;;;;;;4966758;28;20057;-70
2023/06/11 04:06:25;;;;;;;9.50;6.70;;;17.80;99.90;;;;;;4982039;28;20042;-70
2023/06/11 04:08:50;;;;;;;9.60;6.20;;;17.80;99.90;;;;;;4976756;28;20427;-70
2023/06/11 04:11:16;;;;;;;9.18;5.93;;;17.80;99.90;;;;;;4960463;28;20394;-70
2023/06/11 04:13:42;;;;;;;9.00;6.18;;;17.80;99.90;;;;;;4968143;28;20058;-70
2023/06/11 04:16:07;;;;;;;10.82;5.70;;;17.80;99.90;;;;;;4969093;28;20432;-70
2023/06/11 04:18:33;;;;;;;8.77;6.70;;;17.80;99.90;;;;;;4961256;28;20038;-70
2023/06/11 04:20:58;;;;;;;10.60;6.55;;;17.80;99.90;;;;;;4963158;28;20092;-70
2023/06/11 04:23:24;;;;;;;9.07;6.45;;;17.80;99.90;;;;;;4966855;28;20535;-70
2023/06/11 04:25:50;;;;;;;9.57;6.15;;;17.80;99.90;;;;;;4965715;28;20078;-70
2023/06/11 04:28:15;;;;;;;10.73;6.50;;;17.90;99.90;;;;;;4964527;28;20631;-70
2023/06/11 04:30:41;;;;;;;10.50;6.80;;;17.90;99.90;;;;;;4966010;28;20038;-70
2023/06/11 04:33:07;;;;;;;8.23;5.68;;;17.90;99.90;;;;;;4965673;28;20102;-70
2023/06/11 04:35:34;;;;;;;11.10;6.90;;;17.90;99.90;;;;;;4963345;28;20046;-70
2023/06/11 04:38:03;;;;;;;8.50;6.15;;;17.80;99.90;;;;;;4986470;28;20239;-70
2023/06/11 04:40:28;;;;;;;9.55;6.22;;;18.00;99.90;;;;;;4966852;28;20042;-70
2023/06/11 04:42:54;;;;;;;10.27;6.65;;;17.90;99.90;;;;;;4967981;28;20057;-70
2023/06/11 04:45:20;;;;;;;9.25;6.68;;;17.90;99.90;;;;;;4957392;28;20046;-70
2023/06/11 04:47:46;;;;;;;19.17;7.72;;;18.00;99.90;;;;;;4981750;28;20523;-70
2023/06/11 04:50:12;;;;;;;12.88;7.45;;;18.00;99.90;;;;;;4979696;28;20073;-70
2023/06/11 04:52:38;;;;;;;8.60;6.47;;;18.00;99.90;;;;;;4964548;28;20496;-70
2023/06/11 04:55:09;;;;;;;8.32;6.05;;;18.00;99.90;;;;;;4982270;28;20408;-70
2023/06/11 04:57:36;;;;;;;8.82;6.85;;;18.10;99.90;;;;;;4961264;28;20042;-70
2023/06/11 05:00:07;;;;;;;8.60;6.30;;;18.10;99.90;;;;;;4963741;28;20172;-70
2023/06/11 05:02:37;;;;;;;10.98;7.10;;;18.20;99.90;;;;;;4982017;28;20129;-70
2023/06/11 05:05:05;;;;;;;9.60;6.60;;;18.20;99.90;;;;;;4943231;28;21850;-70
2023/06/11 05:07:31;;;;;;;9.15;6.82;;;18.20;99.90;;;;;;4958979;28;20365;-70
2023/06/11 05:09:57;;;;;;;10.65;6.57;;;18.30;99.90;;;;;;4962984;28;20321;-71
2023/06/11 05:12:23;;;;;;;10.63;6.15;;;18.30;99.90;;;;;;4963235;28;20042;-70
2023/06/11 05:14:49;;;;;;;10.30;7.65;;;18.30;99.90;;;;;;4963241;28;20069;-69
2023/06/11 05:17:15;;;;;;;9.95;6.10;;;18.40;99.90;;;;;;4965561;28;20045;-70
2023/06/11 05:19:41;;;;;;;9.70;6.63;;;18.40;99.90;;;;;;4960964;28;20129;-70
2023/06/11 05:22:07;;;;;;;;;;;18.50;99.90;;;;;;4981451;28;21542;-70
2023/06/11 05:24:33;;;;;;;11.05;6.85;;;18.50;99.90;;;;;;4964816;28;19918;-70
2023/06/11 05:26:59;;;;;;;11.27;7.20;;;18.50;99.90;;;;;;4976892;28;20042;-69
2023/06/11 05:29:26;;;;;;;10.00;7.15;;;18.60;99.90;;;;;;4971395;28;20133;-70
2023/06/11 05:31:52;;;;;;;13.82;6.95;;;18.70;99.90;;;;;;4980975;28;20058;-70
2023/06/11 05:34:18;;;;;;;8.65;6.38;;;18.70;99.90;;;;;;4966622;28;20081;-70
2023/06/11 05:36:45;;;;;;;;;;;18.80;99.90;;;;;;4961337;28;20306;-70
2023/06/11 05:39:12;;;;;;;9.20;6.75;;;18.80;99.90;;;;;;4968507;28;19921;-70
2023/06/11 05:41:38;;;;;;;10.05;6.57;;;18.90;99.90;;;;;;4974700;28;20050;-70
2023/06/11 05:44:04;;;;;;;9.30;6.30;;;18.90;99.90;;;;;;4966638;28;20220;-70
2023/06/11 05:46:30;;;;;;;8.63;6.40;;;18.90;99.90;;;;;;4955497;28;20072;-70
2023/06/11 05:48:57;;;;;;;9.95;6.50;;;19.00;99.90;;;;;;4963394;28;20058;-70
2023/06/11 05:51:23;;;;;;;10.55;7.00;;;19.10;99.90;;;;;;4961625;28;20108;-70
2023/06/11 05:53:48;;;;;;;10.23;7.00;;;19.10;99.90;;;;;;4969284;28;20038;-70
2023/06/11 05:56:14;;;;;;;9.98;6.80;;;19.20;99.90;;;;;;4978836;28;20045;-70
2023/06/11 05:58:40;;;;;;;9.25;6.63;;;19.20;99.90;;;;;;4980915;28;20039;-70
2023/06/11 06:01:08;;;;;;;10.48;6.18;;;19.20;99.90;;;;;;4983186;28;20042;-70
2023/06/11 06:03:34;;;;;;;12.70;7.03;;;19.30;99.90;;;;;;4965282;28;20073;-70
2023/06/11 06:06:03;;;;;;;8.00;5.80;;;19.40;99.90;;;;;;4971478;28;20507;-70
2023/06/11 06:08:30;;;;;;;9.88;6.45;;;19.40;99.90;;;;;;4967503;28;20460;-70
2023/06/11 06:10:55;;;;;;;9.13;6.57;;;19.50;99.90;;;;;;4968523;28;20050;-70
2023/06/11 06:13:25;;;;;;;10.13;6.72;;;19.50;99.90;;;;;;4961057;28;20042;-70
2023/06/11 06:15:51;;;;;;;11.88;7.78;;;19.60;99.90;;;;;;4972890;28;20337;-71
2023/06/11 06:18:16;;;;;;;8.85;6.80;;;19.60;99.90;;;;;;4978034;28;20564;-70
2023/06/11 06:20:42;;;;;;;10.48;6.65;;;19.70;99.90;;;;;;4965041;28;20050;-70
2023/06/11 06:23:08;;;;;;;;;;;19.70;99.90;;;;;;4984225;28;20050;-69
2023/06/11 06:25:37;;;;;;;8.73;6.28;;;19.80;99.90;;;;;;4970231;28;20004;-70
2023/06/11 06:28:04;;;;;;;9.98;7.32;;;19.90;99.90;;;;;;4968997;28;20062;-70
2023/06/11 06:30:32;;;;;;;10.27;7.00;;;19.90;99.90;;;;;;5036639;23;20384;-68
2023/06/11 06:32:58;;;;;;;7.88;6.50;;;20.00;99.90;;;;;;4987076;28;20051;-69
2023/06/11 06:35:24;;;;;;;8.70;6.38;;;20.00;99.90;;;;;;4978739;28;20047;-69
2023/06/11 06:37:50;;;;;;;10.13;6.75;;;20.10;99.90;;;;;;4976598;28;20061;-68
2023/06/11 06:40:15;;;;;;;10.90;6.75;;;20.20;99.90;;;;;;4973669;28;20129;-68
2023/06/11 06:42:41;;;;;;;9.95;6.22;;;20.30;99.90;;;;;;4982957;28;20104;-70
2023/06/11 06:45:07;;;;;;;8.73;6.93;;;20.30;99.90;;;;;;4966942;28;20061;-70
2023/06/11 06:47:33;;;;;;;10.63;6.50;;;20.40;99.90;;;;;;4960612;28;20050;-69
2023/06/11 06:49:58;;;;;;;10.27;6.60;;;20.50;99.90;;;;;;4967430;28;20468;-71
2023/06/11 06:52:24;;;;;;;9.13;6.45;;;20.60;99.90;;;;;;4978687;28;20054;-68
2023/06/11 06:54:51;;;;;;;8.55;6.30;;;20.60;99.90;;;;;;4969643;28;20085;-69
2023/06/11 06:57:17;;;;;;;11.23;6.90;;;20.70;99.90;;;;;;4978093;28;20153;-70
2023/06/11 06:59:43;;;;;;;11.07;7.05;;;20.70;99.90;;;;;;4977828;28;20046;-69
2023/06/11 07:02:09;;;;;;;8.75;6.55;;;20.80;99.90;;;;;;4964065;28;20168;-69
2023/06/11 07:04:35;;;;;;;9.82;6.22;;;20.90;99.90;;;;;;4962011;28;20566;-68
2023/06/11 07:07:00;;;;;;;9.35;6.60;;;21.00;99.90;;;;;;4982260;28;20049;-69
2023/06/11 07:09:26;;;;;;;;;;;21.10;99.90;;;;;;4957429;28;20231;-72
2023/06/11 07:11:52;;;;;;;9.85;6.00;;;21.10;99.90;;;;;;4984638;28;19929;-70
2023/06/11 07:14:19;;;;;;;10.95;6.97;;;21.20;99.90;;;;;;4963229;28;20540;-72
2023/06/11 07:16:44;;;;;;;12.05;7.65;;;21.30;99.90;;;;;;4967784;28;20127;-67
2023/06/11 07:19:10;;;;;;;;;;;21.40;99.90;;;;;;4961508;28;20046;-67
2023/06/11 07:21:36;;;;;;;8.02;6.03;;;21.50;99.90;;;;;;4964637;28;20087;-68
2023/06/11 07:24:04;;;;;;;;;;;21.50;99.90;;;;;;4982492;28;20034;-67
2023/06/11 07:26:30;;;;;;;7.78;6.25;;;21.60;99.90;;;;;;4977419;28;19996;-68
2023/06/11 07:28:56;;;;;;;11.68;6.43;;;21.70;99.90;;;;;;4961107;28;20054;-69
2023/06/11 07:31:22;;;;;;;;;;;21.70;99.90;;;;;;4972568;28;20377;-67
2023/06/11 07:33:49;;;;;;;9.50;5.75;;;21.80;99.90;;;;;;4975497;28;19925;-67
2023/06/11 07:36:15;;;;;;;9.10;6.07;;;21.90;99.90;;;;;;4959369;28;20065;-69
2023/06/11 07:38:43;;;;;;;7.63;6.28;;;22.00;99.90;;;;;;4977471;28;20401;-67
2023/06/11 07:41:10;;;;;;;9.95;7.13;;;22.00;99.90;;;;;;4960958;28;20046;-68
2023/06/11 07:43:35;;;;;;;8.98;6.20;;;22.20;99.90;;;;;;4963108;28;20105;-67
2023/06/11 07:46:01;;;;;;;;;;;22.20;99.90;;;;;;4964831;28;20190;-67
2023/06/11 07:48:27;;;;;;;8.02;6.20;;;22.20;99.90;;;;;;4975964;28;20416;-67
2023/06/11 07:50:53;;;;;;;;;;;22.30;99.90;;;;;;4964753;28;20132;-68
2023/06/11 07:53:21;;;;;;;7.50;5.45;;;22.40;99.90;;;;;;4985924;28;20275;-68
2023/06/11 07:55:49;;;;;;;8.23;6.50;;;22.50;99.90;;;;;;4969039;28;20129;-67
2023/06/11 07:58:15;;;;;;;9.50;6.10;;;22.60;99.90;;;;;;4983504;28;20073;-68
2023/06/11 08:00:41;;;;;;;;;;;22.70;99.90;;;;;;4961203;28;20046;-67
2023/06/11 08:03:06;;;;;;;7.75;5.47;;;22.80;99.90;;;;;;4979155;28;20392;-68
2023/06/11 08:05:34;;;;;;;9.27;6.28;;;22.90;99.90;;;;;;4979877;28;20623;-67
2023/06/11 08:08:00;;;;;;;;;;;22.90;99.90;;;;;;4980824;28;20076;-67
2023/06/11 08:10:26;;;;;;;8.90;5.63;;;23.00;99.90;;;;;;4983258;28;20068;-67
2023/06/11 08:12:51;;;;;;;;;;;23.10;99.90;;;;;;4983650;28;20499;-67
2023/06/11 08:15:17;;;;;;;8.63;6.30;;;23.20;99.90;;;;;;4964851;28;20593;-67
2023/06/11 08:17:43;;;;;;;;;;;23.20;99.90;;;;;;4983286;28;20046;-67
2023/06/11 08:20:09;;;;;;;9.10;5.72;;;23.30;99.90;;;;;;4982656;28;19948;-67
2023/06/11 08:22:35;;;;;;;;;;;23.40;99.90;;;;;;4983712;28;20050;-67
2023/06/11 08:25:01;;;;;;;7.13;5.70;;;23.50;99.90;;;;;;4983594;28;19948;-67
2023/06/11 08:27:26;;;;;;;;;;;23.60;99.90;;;;;;4981413;28;20034;-67
2023/06/11 08:29:52;;;;;;;8.50;5.50;;;23.60;99.90;;;;;;4984180;28;20004;-67
2023/06/11 08:32:17;;;;;;;;;;;23.80;99.90;;;;;;4987401;28;20409;-67
2023/06/11 08:34:43;;;;;;;9.38;5.70;;;23.80;99.90;;;;;;4980024;28;19921;-67
2023/06/11 08:37:08;;;;;;;;;;;23.90;99.90;;;;;;4967962;28;20122;-68
2023/06/11 08:39:34;;;;;;;8.85;5.68;;;24.00;99.90;;;;;;4958223;28;19918;-67
2023/06/11 08:42:00;;;;;;;;;;;24.10;99.90;;;;;;4975640;28;20043;-67
2023/06/11 08:44:27;;;;;;;9.05;5.60;;;24.10;99.90;;;;;;4983709;28;19918;-66
2023/06/11 08:46:55;;;;;;;7.90;5.53;;;24.30;99.90;;;;;;4981528;28;20038;-68
2023/06/11 08:49:22;;;;;;;7.63;5.47;;;24.40;99.90;;;;;;4969851;28;20133;-67
2023/06/11 08:51:49;;;;;;;7.20;5.47;;;24.50;99.90;;;;;;4969207;28;20089;-68
2023/06/11 08:54:16;;;;;;;7.13;5.78;;;24.60;99.90;;;;;;4978398;28;20049;-67
2023/06/11 08:56:44;;;;;;;7.15;6.03;;;24.60;99.90;;;;;;4982550;28;20042;-67
2023/06/11 08:59:10;;;;;;;9.30;5.88;;;24.70;99.90;;;;;;4976581;28;20400;-67
2023/06/11 09:01:37;;;;;;;8.25;6.35;;;24.80;99.90;;;;;;4978648;28;20097;-68
2023/06/11 09:04:06;;;;;;;8.95;6.03;;;24.90;99.90;;;;;;4981046;28;20061;-67
2023/06/11 09:06:33;;;;;;;7.50;5.10;;;25.10;99.90;;;;;;4976032;28;20049;-67
2023/06/11 09:09:02;;;;;;;10.23;5.43;;;25.10;99.90;;;;;;4965731;28;20710;-67
2023/06/11 09:11:35;;;;;;;7.00;5.13;;;25.20;99.90;;;;;;4959568;28;20645;-68
2023/06/11 09:14:05;;;;;;;9.93;5.95;;;25.40;99.90;;;;;;4986320;28;20137;-68
2023/06/11 09:16:42;;;;;;;8.00;5.60;;;25.50;99.90;;;;;;4983060;28;20900;-67
2023/06/11 09:19:15;;;;;;;7.82;5.93;;;25.60;99.90;;;;;;4979081;28;20050;-67
2023/06/11 09:21:51;;;;;;;8.05;5.95;;;25.70;99.90;;;;;;4985971;28;20460;-70
2023/06/11 09:24:21;;;;;;;7.60;5.75;;;25.80;99.90;;;;;;4958221;28;20133;-70
2023/06/11 09:26:57;;;;;;;6.55;5.30;;;25.90;99.90;;;;;;4961653;28;20050;-69
2023/06/11 09:29:27;;;;;;;7.30;5.45;;;26.00;99.90;;;;;;4965265;28;20042;-69
2023/06/11 09:32:03;;;;;;;6.63;5.10;;;26.10;99.90;;;;;;4969676;28;20090;-69
2023/06/11 09:34:28;;;;;;;9.68;5.40;;;26.20;99.90;;;;;;4963534;28;20046;-69
2023/06/11 09:36:54;;;;;;;8.02;5.57;;;26.30;99.90;;;;;;4978091;28;20077;-69
2023/06/11 09:39:20;;;;;;;6.05;5.07;;;26.40;99.90;;;;;;4987445;28;20085;-70
2023/06/11 09:41:52;;;;;;;8.77;5.68;;;26.50;99.90;;;;;;4979468;28;20144;-70
2023/06/11 09:44:18;;;;;;;7.72;5.60;;;26.50;99.90;;;;;;4985810;28;20050;-70
2023/06/11 09:46:46;;;;;;;7.30;5.50;;;26.60;99.90;;;;;;4981633;28;20177;-70
2023/06/11 09:49:13;;;;;;;8.88;5.30;;;26.70;99.90;;;;;;4980689;28;20122;-69
2023/06/11 09:51:39;;;;;;;7.88;5.22;;;26.80;99.90;;;;;;4964809;28;20050;-69
2023/06/11 09:54:09;;;;;;;7.45;5.13;;;26.90;99.90;;;;;;4971750;28;20075;-69
2023/06/11 09:56:37;;;;;;;6.57;5.03;;;27.00;99.90;;;;;;4979129;28;20114;-70
2023/06/11 09:59:04;;;;;;;7.07;4.80;;;27.10;99.90;;;;;;4983083;28;20050;-70
2023/06/11 10:01:31;;;;;;;6.68;5.00;;;27.20;99.90;;;;;;4977238;28;20309;-70
2023/06/11 10:03:58;;;;;;;6.95;5.53;;;27.30;99.90;;;;;;4978166;28;20039;-69
2023/06/11 10:06:32;;;;;;;9.05;5.03;;;27.40;99.90;;;;;;4975287;28;20050;-69
2023/06/11 10:09:00;;;;;;;5.90;4.68;;;27.50;99.90;;;;;;4968839;28;20177;-69
2023/06/11 10:11:38;;;;;;;6.35;4.95;;;27.50;99.90;;;;;;4980564;28;20133;-69
2023/06/11 10:14:05;;;;;;;7.78;4.88;;;27.60;99.90;;;;;;4980815;28;20456;-69
2023/06/11 10:16:31;;;;;;;6.70;4.93;;;27.70;99.90;;;;;;4961590;28;20491;-69
2023/06/11 10:19:11;;;;;;;7.97;5.10;;;27.80;99.90;;;;;;4966845;28;20050;-70
2023/06/11 10:21:49;;;;;;;7.40;4.60;;;27.90;99.90;;;;;;4961773;28;20382;-69
2023/06/11 10:24:32;;;;;;;10.77;4.90;;;27.90;99.90;;;;;;4979938;28;20081;-70
2023/06/11 10:27:14;;;;;;;6.63;4.63;;;28.10;99.90;;;;;;4964008;28;20054;-70
2023/06/11 10:29:48;;;;;;;6.65;4.85;;;28.10;99.90;;;;;;4956341;28;20130;-70
2023/06/11 10:32:18;;;;;;;5.07;4.03;;;28.20;99.90;;;;;;4981494;28;20089;-69
2023/06/11 10:34:44;;;;;;;7.00;4.72;;;28.30;99.60;;;;;;4966870;28;20074;-70
2023/06/11 10:37:11;;;;;;;6.78;4.60;;;28.40;99.40;;;;;;4963068;28;20117;-70
2023/06/11 10:39:52;;;;;;;5.93;4.40;;;28.50;99.20;;;;;;4972970;28;20071;-69
2023/06/11 10:42:27;;;;;;;5.75;4.45;;;28.50;98.70;;;;;;4977704;28;20042;-69
2023/06/11 10:44:59;;;;;;;6.07;4.20;;;28.60;98.10;;;;;;4982662;28;20046;-69
2023/06/11 10:47:27;;;;;;;5.35;4.18;;;28.60;97.20;;;;;;4983369;28;20034;-70
2023/06/11 10:50:04;;;;;;;5.53;4.40;;;28.70;97.00;;;;;;4957177;28;20042;-70
2023/06/11 10:52:30;;;;;;;7.15;4.15;;;28.80;96.10;;;;;;4984139;28;20493;-69
2023/06/11 10:54:57;;;;;;;6.45;4.80;;;28.90;96.30;;;;;;4964018;28;20054;-69
2023/06/11 10:57:24;;;;;;;5.43;4.18;;;28.90;95.50;;;;;;4958107;28;20492;-69
2023/06/11 10:59:51;;;;;;;5.03;4.20;;;28.90;95.20;;;;;;4976662;28;20053;-69
2023/06/11 11:02:17;;;;;;;5.30;3.58;;;29.00;94.60;;;;;;4979060;28;20449;-69
2023/06/11 11:04:51;;;;;;;4.75;3.78;;;29.10;95.00;;;;;;4966198;28;20105;-69
2023/06/11 11:07:17;;;;;;;5.82;4.28;;;29.20;93.80;;;;;;4984883;28;20053;-69
2023/06/11 11:09:42;;;;;;;5.72;4.05;;;29.30;93.00;;;;;;4979264;28;20038;-69
2023/06/11 11:12:10;;;;;;;5.50;4.25;;;29.30;92.70;;;;;;4964497;28;20073;-69
2023/06/11 11:14:36;;;;;;;5.63;3.95;;;29.40;92.80;;;;;;4959869;28;20049;-70
2023/06/11 11:17:01;;;;;;;4.97;3.60;;;29.50;92.20;;;;;;4960791;28;20096;-70
2023/06/11 11:19:27;;;;;;;4.93;3.50;;;29.60;91.40;;;;;;4985468;28;20081;-70
2023/06/11 11:21:53;;;;;;;5.07;3.80;;;29.60;90.90;;;;;;4985162;28;20085;-69
2023/06/11 11:24:19;;;;;;;6.60;3.80;;;29.70;90.40;;;;;;4977047;28;20064;-69
2023/06/11 11:26:45;;;;;;;5.07;3.97;;;29.70;90.30;;;;;;4981921;28;20056;-69
2023/06/11 11:29:12;;;;;;;5.53;3.83;;;29.80;90.20;;;;;;4983443;28;20046;-69
2023/06/11 11:31:38;;;;;;;5.90;4.28;;;29.80;89.10;;;;;;4984813;28;20057;-70
2023/06/11 11:34:04;;;;;;;6.00;4.35;;;29.90;88.70;;;;;;4984665;28;20046;-70
2023/06/11 11:36:31;;;;;;;5.28;4.03;;;30.00;87.60;;;;;;4961169;28;20532;-69
2023/06/11 11:38:57;;;;;;;5.78;3.42;;;30.10;86.60;;;;;;4959980;28;20046;-69
2023/06/11 11:41:26;;;;;;;4.82;3.80;;;30.10;86.70;;;;;;4977392;28;20106;-69
2023/06/11 11:43:51;;;;;;;4.72;3.53;;;30.10;85.20;;;;;;4952024;28;20108;-69
2023/06/11 11:46:23;;;;;;;10.35;4.32;;;30.30;84.40;;;;;;4962204;28;20092;-69
2023/06/11 11:48:57;;;;;;;4.78;3.50;;;30.30;83.90;;;;;;4985607;28;20338;-69
2023/06/11 11:51:25;;;;;;;5.85;3.97;;;30.40;82.90;;;;;;4962463;28;20123;-70
2023/06/11 11:53:51;;;;;;;4.53;3.33;;;30.50;81.50;;;;;;4977479;28;20053;-68
2023/06/11 11:56:17;;;;;;;6.53;3.75;;;30.50;79.40;;;;;;4957197;28;20535;-69
2023/06/11 11:58:44;;;;;;;6.57;3.42;;;30.40;78.60;;;;;;4977180;28;20066;-69
2023/06/11 12:01:21;;;;;;;5.55;3.83;;;30.40;78.20;;;;;;4982089;28;20050;-69
2023/06/11 12:04:01;;;;;;;5.43;3.97;;;30.40;76.70;;;;;;4963023;28;20087;-69
2023/06/11 12:06:26;;;;;;;3.63;3.08;;;30.30;75.80;;;;;;4964153;28;20038;-69
2023/06/11 12:08:52;;;;;;;4.57;3.30;;;30.30;75.90;;;;;;4981040;28;20113;-69
2023/06/11 12:11:18;;;;;;;7.82;3.30;;;30.40;75.60;;;;;;4956624;28;20046;-70
2023/06/11 12:13:44;;;;;;;6.13;3.97;;;30.50;75.10;;;;;;4985710;28;20050;-70
2023/06/11 12:16:10;;;;;;;5.35;3.78;;;30.60;73.90;;;;;;4965337;28;20114;-69
2023/06/11 12:18:36;;;;;;;6.72;3.25;;;30.80;73.60;;;;;;4961631;28;20039;-70
2023/06/11 12:21:01;;;;;;;5.85;4.00;;;30.90;73.20;;;;;;4965245;28;20086;-69
2023/06/11 12:23:27;;;;;;;4.68;3.40;;;31.00;72.20;;;;;;4963057;28;20057;-69
2023/06/11 12:25:53;;;;;;;5.07;3.53;;;31.10;72.30;;;;;;4975155;28;20085;-69
2023/06/11 12:28:19;;;;;;;4.47;3.42;;;31.20;70.90;;;;;;4979360;28;20066;-69
2023/06/11 12:30:45;;;;;;;4.93;3.55;;;31.30;70.20;;;;;;5040190;23;20050;-70
2023/06/11 12:33:11;;;;;;;4.05;3.22;;;31.40;70.50;;;;;;4973063;28;20657;-70
2023/06/11 12:35:37;;;;;;;5.05;3.35;;;31.50;69.80;;;;;;4977562;28;20062;-70
2023/06/11 12:38:03;;;;;;;4.07;3.22;;;31.60;69.30;;;;;;4977607;28;20059;-70
2023/06/11 12:40:30;;;;;;;4.82;3.15;;;31.70;69.10;;;;;;4975184;28;20042;-70
2023/06/11 12:42:58;;;;;;;4.78;3.38;;;31.80;69.00;;;;;;4978802;28;20050;-70
2023/06/11 12:45:28;;;;;;;4.88;3.15;;;31.80;68.00;;;;;;4983845;28;20526;-70
2023/06/11 12:48:00;;;;;;;4.95;3.53;;;31.80;66.20;;;;;;4986793;28;20226;-70
2023/06/11 12:50:25;;;;;;;7.43;3.97;;;31.80;66.00;;;;;;4980332;28;20065;-70
2023/06/11 12:52:51;;;;;;;7.43;3.25;;;31.80;65.30;;;;;;4983625;28;20042;-70